Time;durP1;ratioP1;P1;durP2;ratioP2;P2;SDS_P1;SDS_P2;PMS_P1;PMS_P2;Temp;Humidity;BMP_temperature;BMP_pressure;BME280_temperature;BME280_humidity;BME280_pressure;Samples;Min_cycle;Max_cycle;Signal;HPM_P1;HPM_P2
2022/04/18 00:01:04;;;;;;;5.37;4.87;;;8.40;99.90;;;;;;5076896;28;20510;-58
2022/04/18 00:03:31;;;;;;;9.13;4.90;;;8.20;99.90;;;;;;5076852;28;20465;-57
2022/04/18 00:06:00;;;;;;;7.70;4.47;;;8.20;99.90;;;;;;5076968;28;20465;-58
2022/04/18 00:08:30;;;;;;;6.23;4.30;;;8.30;99.90;;;;;;5075921;28;20489;-58
2022/04/18 00:11:01;;;;;;;5.10;4.60;;;8.30;99.90;;;;;;5076756;28;20465;-57
2022/04/18 00:13:31;;;;;;;3.40;3.20;;;8.40;99.90;;;;;;5077071;28;20472;-57
2022/04/18 00:16:01;;;;;;;4.20;3.90;;;8.50;99.90;;;;;;5080467;28;20464;-55
2022/04/18 00:18:27;;;;;;;6.37;3.93;;;8.60;99.90;;;;;;5079913;28;20457;-55
2022/04/18 00:20:58;;;;;;;4.60;4.13;;;8.70;99.90;;;;;;5079843;28;20510;-57
2022/04/18 00:23:26;;;;;;;4.00;3.70;;;8.80;99.90;;;;;;5080152;28;20552;-57
2022/04/18 00:25:53;;;;;;;5.60;4.50;;;8.80;99.90;;;;;;5080356;28;20465;-58
2022/04/18 00:28:34;;;;;;;5.73;4.20;;;8.80;99.90;;;;;;5080009;28;20529;-58
2022/04/18 00:31:11;;;;;;;5.00;3.87;;;8.80;99.90;;;;;;5079452;28;20476;-57
2022/04/18 00:33:43;;;;;;;3.70;3.40;;;8.80;99.90;;;;;;5080369;28;20461;-57
2022/04/18 00:36:10;;;;;;;4.33;3.93;;;8.80;99.90;;;;;;5080071;28;20471;-57
2022/04/18 00:38:38;;;;;;;4.53;4.13;;;8.80;99.90;;;;;;5079743;28;20554;-57
2022/04/18 00:41:05;;;;;;;3.97;3.60;;;8.80;99.90;;;;;;5079454;28;20495;-57
2022/04/18 00:43:41;;;;;;;4.67;4.23;;;8.80;99.90;;;;;;5080234;28;20461;-57
2022/04/18 00:46:13;;;;;;;4.20;3.77;;;8.80;99.90;;;;;;5079248;28;20518;-57
2022/04/18 00:48:41;;;;;;;4.50;3.60;;;8.80;99.90;;;;;;5079962;28;20546;-58
2022/04/18 00:51:13;;;;;;;4.20;3.77;;;8.80;99.90;;;;;;5079443;28;20458;-56
2022/04/18 00:54:00;;;;;;;4.17;3.77;;;8.80;99.90;;;;;;5078572;28;20840;-56
2022/04/18 00:56:28;;;;;;;5.43;3.83;;;8.90;99.90;;;;;;5079794;28;20835;-58
2022/04/18 00:58:57;;;;;;;5.43;4.90;;;8.80;99.90;;;;;;5077974;28;20461;-58
2022/04/18 01:01:27;;;;;;;4.70;4.30;;;8.90;99.90;;;;;;5078956;28;20493;-56
2022/04/18 01:03:57;;;;;;;4.57;4.10;;;8.90;99.90;;;;;;5079148;28;20460;-57
2022/04/18 01:06:27;;;;;;;4.00;3.37;;;8.90;99.90;;;;;;5079219;28;20818;-57
2022/04/18 01:09:01;;;;;;;3.83;3.53;;;8.90;99.90;;;;;;5079584;28;20527;-58
2022/04/18 01:11:33;;;;;;;3.90;3.60;;;8.90;99.90;;;;;;5079199;28;20469;-58
2022/04/18 01:14:04;;;;;;;4.07;3.77;;;8.90;99.90;;;;;;5079924;28;20948;-57
2022/04/18 01:16:34;;;;;;;4.20;3.80;;;8.90;99.90;;;;;;5079392;28;20462;-57
2022/04/18 01:19:03;;;;;;;4.00;3.60;;;8.90;99.90;;;;;;5078380;28;20458;-57
2022/04/18 01:21:34;;;;;;;4.27;3.87;;;8.90;99.90;;;;;;5078967;28;20488;-57
2022/04/18 01:24:01;;;;;;;4.57;3.40;;;8.70;99.90;;;;;;5079303;28;20878;-57
2022/04/18 01:29:33;;;;;;;3.87;3.47;;;8.20;99.90;;;;;;4997648;28;20449;-57
2022/04/18 01:32:00;;;;;;;5.00;4.03;;;8.10;99.90;;;;;;5061022;28;20453;-57
2022/04/18 01:34:29;;;;;;;3.90;3.60;;;8.00;99.90;;;;;;5078824;28;20461;-58
2022/04/18 01:36:58;;;;;;;5.93;4.00;;;8.10;99.90;;;;;;5078661;28;20562;-57
2022/04/18 01:39:31;;;;;;;4.47;3.70;;;8.10;99.90;;;;;;5079012;28;20481;-57
2022/04/18 01:41:58;;;;;;;4.10;3.70;;;8.20;99.90;;;;;;5079071;28;20807;-57
2022/04/18 01:44:26;;;;;;;4.23;3.77;;;8.10;99.90;;;;;;5077371;28;20465;-57
2022/04/18 01:46:58;;;;;;;4.00;3.60;;;7.90;99.90;;;;;;5078459;28;20453;-57
2022/04/18 01:49:28;;;;;;;4.43;4.03;;;7.90;99.90;;;;;;5078821;28;20582;-58
2022/04/18 01:51:56;;;;;;;4.77;3.93;;;7.90;99.90;;;;;;5079184;28;20468;-57
2022/04/18 01:54:26;;;;;;;4.70;3.53;;;8.00;99.90;;;;;;5077933;28;20465;-57
2022/04/18 01:56:56;;;;;;;4.30;3.87;;;8.00;99.90;;;;;;5078844;28;20483;-54
2022/04/18 01:59:27;;;;;;;4.60;4.20;;;7.90;99.90;;;;;;5078433;28;20459;-57
2022/04/18 02:01:54;;;;;;;4.97;3.80;;;7.90;99.90;;;;;;5078124;28;20511;-57
2022/04/18 02:04:21;;;;;;;5.20;3.77;;;8.00;99.90;;;;;;5077793;28;20465;-56
2022/04/18 02:06:48;;;;;;;3.60;3.30;;;8.10;99.90;;;;;;5078034;28;20519;-58
2022/04/18 02:09:20;;;;;;;3.77;3.37;;;8.10;99.90;;;;;;5078135;28;20823;-57
2022/04/18 02:11:47;;;;;;;4.90;4.10;;;8.10;99.90;;;;;;5078599;28;20461;-57
2022/04/18 02:14:17;;;;;;;4.57;3.87;;;8.00;99.90;;;;;;5078285;28;20465;-57
2022/04/18 02:16:44;;;;;;;4.20;3.40;;;8.00;99.90;;;;;;5077534;28;20472;-57
2022/04/18 02:19:14;;;;;;;4.40;3.60;;;7.80;99.90;;;;;;5077937;28;20515;-58
2022/04/18 02:21:46;;;;;;;3.97;3.67;;;7.80;99.90;;;;;;5077548;28;20539;-57
2022/04/18 02:24:16;;;;;;;3.90;3.50;;;7.70;99.90;;;;;;5078495;28;20586;-58
2022/04/18 02:26:45;;;;;;;3.60;3.30;;;7.50;99.90;;;;;;5077220;28;20468;-57
2022/04/18 02:29:15;;;;;;;3.97;3.67;;;7.40;99.90;;;;;;5077907;28;20798;-57
2022/04/18 02:34:32;;;;;;;3.83;3.23;;;7.30;99.90;;;;;;5077640;28;20896;-58
2022/04/18 02:36:59;;;;;;;4.27;3.77;;;7.20;99.90;;;;;;5076707;28;20457;-58
2022/04/18 02:39:26;;;;;;;4.30;3.90;;;7.10;99.90;;;;;;5077727;28;20531;-57
2022/04/18 02:41:54;;;;;;;5.47;4.27;;;7.10;99.90;;;;;;5077042;28;20910;-58
2022/04/18 02:44:21;;;;;;;4.17;3.77;;;7.20;99.90;;;;;;5077089;28;20511;-58
2022/04/18 02:46:48;;;;;;;4.63;3.53;;;7.10;99.90;;;;;;5077161;28;20502;-57
2022/04/18 02:49:18;;;;;;;5.10;3.60;;;7.20;99.90;;;;;;5077076;28;20485;-57
2022/04/18 02:51:45;;;;;;;5.70;4.03;;;7.10;99.90;;;;;;5078036;28;20819;-57
2022/04/18 02:54:19;;;;;;;6.40;4.23;;;7.00;99.90;;;;;;5077892;28;20560;-56
2022/04/18 02:56:46;;;;;;;3.73;3.30;;;7.00;99.90;;;;;;5076814;28;20496;-57
2022/04/18 02:59:17;;;;;;;4.90;4.10;;;7.00;99.90;;;;;;5076938;28;20739;-58
2022/04/18 03:01:44;;;;;;;4.70;3.43;;;6.80;99.90;;;;;;5077692;28;20515;-58
2022/04/18 03:04:12;;;;;;;3.70;3.40;;;6.90;99.90;;;;;;5078192;28;20457;-58
2022/04/18 03:06:39;;;;;;;4.47;4.07;;;7.00;99.90;;;;;;5076522;28;20511;-57
2022/04/18 03:09:11;;;;;;;3.90;3.60;;;7.00;99.90;;;;;;5077556;28;20489;-58
2022/04/18 03:11:45;;;;;;;6.63;4.00;;;6.90;99.90;;;;;;5077080;28;20771;-58
2022/04/18 03:14:18;;;;;;;3.77;3.47;;;6.70;99.90;;;;;;5077724;28;20802;-56
2022/04/18 03:16:55;;;;;;;7.10;3.97;;;6.60;99.90;;;;;;5077115;28;20461;-57
2022/04/18 03:19:22;;;;;;;4.80;4.40;;;6.60;99.90;;;;;;5056727;28;20808;-58
2022/04/18 03:21:52;;;;;;;4.63;3.67;;;6.40;99.90;;;;;;5061997;28;20453;-58
2022/04/18 03:24:28;;;;;;;5.30;3.97;;;6.40;99.90;;;;;;5077036;28;20466;-57
2022/04/18 03:26:55;;;;;;;4.03;3.63;;;6.40;99.90;;;;;;5076986;28;20465;-58
2022/04/18 03:29:23;;;;;;;4.80;3.53;;;6.40;99.90;;;;;;5076116;28;20489;-57
2022/04/18 03:31:56;;;;;;;5.10;4.60;;;6.40;99.90;;;;;;5077055;28;20526;-57
2022/04/18 03:34:26;;;;;;;3.77;3.37;;;6.30;99.90;;;;;;5077022;28;20510;-57
2022/04/18 03:39:51;;;;;;;4.23;3.77;;;6.40;99.90;;;;;;5073987;28;20496;-58
2022/04/18 03:42:29;;;;;;;8.43;3.87;;;6.40;99.90;;;;;;5076977;28;20461;-57
2022/04/18 03:44:59;;;;;;;4.27;3.87;;;6.40;99.90;;;;;;5077040;28;20985;-57
2022/04/18 03:47:32;;;;;;;6.87;4.23;;;6.30;99.90;;;;;;5077293;28;20528;-57
2022/04/18 03:50:01;;;;;;;4.57;3.60;;;6.40;99.90;;;;;;5079707;28;20521;-57
2022/04/18 03:52:30;;;;;;;4.80;3.60;;;6.50;99.90;;;;;;5080847;28;20464;-58
2022/04/18 03:54:57;;;;;;;4.20;3.80;;;6.40;99.90;;;;;;5080998;28;20462;-58
2022/04/18 03:57:24;;;;;;;4.60;3.80;;;6.40;99.90;;;;;;5080992;28;20894;-57
2022/04/18 03:59:51;;;;;;;7.43;4.07;;;6.20;99.90;;;;;;5080581;28;20487;-57
2022/04/18 04:02:21;;;;;;;4.40;3.63;;;6.10;99.90;;;;;;5080540;28;20518;-57
2022/04/18 04:04:48;;;;;;;4.03;3.63;;;6.10;99.90;;;;;;5080445;28;20461;-57
2022/04/18 04:07:18;;;;;;;4.47;3.73;;;6.10;99.90;;;;;;5080437;28;20511;-57
2022/04/18 04:09:50;;;;;;;4.23;3.83;;;6.10;99.90;;;;;;5080315;28;20527;-58
2022/04/18 04:12:24;;;;;;;4.47;3.90;;;6.00;99.90;;;;;;5080224;28;20526;-58
2022/04/18 04:14:59;;;;;;;4.70;3.93;;;5.90;99.90;;;;;;5080343;28;20461;-57
2022/04/18 04:17:29;;;;;;;6.60;4.50;;;5.80;99.90;;;;;;5080349;28;20497;-57
2022/04/18 04:19:57;;;;;;;4.30;3.90;;;5.80;99.90;;;;;;5079208;28;20461;-56
2022/04/18 04:22:26;;;;;;;4.63;4.20;;;5.80;99.90;;;;;;5080433;28;20563;-56
2022/04/18 04:24:53;;;;;;;5.73;4.60;;;5.80;99.90;;;;;;5080109;28;20903;-58
2022/04/18 04:27:24;;;;;;;5.13;3.63;;;5.70;99.90;;;;;;5080025;28;20508;-57
2022/04/18 04:29:51;;;;;;;4.20;3.40;;;5.70;99.90;;;;;;5080365;28;21009;-57
2022/04/18 04:32:18;;;;;;;4.37;3.80;;;5.70;99.90;;;;;;5079356;28;20505;-56
2022/04/18 04:34:46;;;;;;;4.00;3.53;;;5.70;99.90;;;;;;5080053;28;20793;-58
2022/04/18 04:37:13;;;;;;;5.10;4.00;;;5.90;99.90;;;;;;5080353;28;20459;-58
2022/04/18 04:39:40;;;;;;;6.33;3.37;;;5.90;99.90;;;;;;5078877;28;20485;-57
2022/04/18 04:42:17;;;;;;;6.30;3.73;;;6.00;99.90;;;;;;5079751;28;20487;-57
2022/04/18 04:44:44;;;;;;;5.80;3.73;;;5.90;99.90;;;;;;5076252;28;20471;-56
2022/04/18 04:47:11;;;;;;;3.47;3.17;;;5.90;99.90;;;;;;5079553;28;20514;-58
2022/04/18 04:49:38;;;;;;;3.57;3.27;;;5.90;99.90;;;;;;5078174;28;20483;-56
2022/04/18 04:52:07;;;;;;;5.10;3.57;;;6.00;99.90;;;;;;5079593;28;20461;-57
2022/04/18 04:54:35;;;;;;;3.50;3.20;;;6.00;99.90;;;;;;5078524;28;20534;-58
2022/04/18 04:57:04;;;;;;;5.47;4.73;;;6.00;99.90;;;;;;5080122;28;20472;-57
2022/04/18 04:59:31;;;;;;;5.33;3.40;;;6.10;99.90;;;;;;5078964;28;20914;-58
2022/04/18 05:02:08;;;;;;;4.83;3.47;;;6.10;99.90;;;;;;5079864;28;20538;-57
2022/04/18 05:04:36;;;;;;;3.80;3.50;;;6.10;99.90;;;;;;5078837;28;20495;-57
2022/04/18 05:07:03;;;;;;;3.97;3.00;;;6.10;99.90;;;;;;5079281;28;20466;-58
2022/04/18 05:09:31;;;;;;;4.47;3.10;;;6.10;99.90;;;;;;5078592;28;20485;-58
2022/04/18 05:12:01;;;;;;;4.20;3.73;;;6.10;99.90;;;;;;5079869;28;20517;-58
2022/04/18 05:14:28;;;;;;;4.37;3.40;;;6.20;99.90;;;;;;5078948;28;20532;-57
2022/04/18 05:16:59;;;;;;;3.93;3.63;;;6.20;99.90;;;;;;5079302;28;20565;-58
2022/04/18 05:19:27;;;;;;;4.43;3.97;;;6.20;99.90;;;;;;5078835;28;20547;-57
2022/04/18 05:21:56;;;;;;;3.83;3.00;;;6.30;99.90;;;;;;5079426;28;20507;-58
2022/04/18 05:24:28;;;;;;;4.10;3.27;;;6.30;99.90;;;;;;5078714;28;20466;-58
2022/04/18 05:26:56;;;;;;;3.73;3.43;;;6.40;99.90;;;;;;5079215;28;20469;-56
2022/04/18 05:29:23;;;;;;;3.80;3.33;;;6.50;99.90;;;;;;5079192;28;20525;-57
2022/04/18 05:31:53;;;;;;;3.63;3.30;;;6.60;99.90;;;;;;5078055;28;20819;-58
2022/04/18 05:34:20;;;;;;;3.60;3.30;;;6.70;99.90;;;;;;5078822;28;20556;-57
2022/04/18 05:36:47;;;;;;;4.27;3.73;;;6.70;99.90;;;;;;5079250;28;20467;-58
2022/04/18 05:39:18;;;;;;;5.17;3.30;;;6.90;99.90;;;;;;5078365;28;20496;-58
2022/04/18 05:41:50;;;;;;;3.80;3.43;;;7.00;99.90;;;;;;5078296;28;20462;-58
2022/04/18 05:44:23;;;;;;;4.43;3.17;;;7.00;99.90;;;;;;5078808;28;20900;-57
2022/04/18 05:46:54;;;;;;;4.07;3.50;;;7.20;99.90;;;;;;5078656;28;20535;-58
2022/04/18 05:49:21;;;;;;;6.87;3.70;;;7.30;99.90;;;;;;5078962;28;20534;-57
2022/04/18 05:51:54;;;;;;;6.10;3.80;;;7.40;99.90;;;;;;5078331;28;20465;-58
2022/04/18 05:54:26;;;;;;;3.40;3.10;;;7.60;99.90;;;;;;5078491;28;20483;-59
2022/04/18 05:56:55;;;;;;;3.50;3.13;;;7.70;99.90;;;;;;5078278;28;20819;-58
2022/04/18 05:59:32;;;;;;;3.90;3.57;;;7.80;99.90;;;;;;5078632;28;20551;-58
2022/04/18 06:01:59;;;;;;;4.40;3.70;;;8.00;99.90;;;;;;5078098;28;20471;-59
2022/04/18 06:04:31;;;;;;;5.20;4.77;;;8.20;99.90;;;;;;5078373;28;20911;-58
2022/04/18 06:07:00;;;;;;;6.30;5.70;;;8.40;99.90;;;;;;5078169;28;20887;-58
2022/04/18 06:09:28;;;;;;;6.17;5.63;;;8.50;99.90;;;;;;5078331;28;20489;-58
2022/04/18 06:11:55;;;;;;;4.70;4.30;;;8.60;99.90;;;;;;5077027;28;20526;-58
2022/04/18 06:14:26;;;;;;;4.97;4.47;;;8.80;99.90;;;;;;5077964;28;20518;-58
2022/04/18 06:16:53;;;;;;;3.83;3.50;;;9.00;99.90;;;;;;5077526;28;20489;-58
2022/04/18 06:19:23;;;;;;;5.17;4.63;;;9.30;99.90;;;;;;5077547;28;20936;-58
2022/04/18 06:21:50;;;;;;;3.50;3.20;;;9.60;99.90;;;;;;5078639;28;20453;-58
2022/04/18 06:24:18;;;;;;;3.07;2.87;;;9.90;99.90;;;;;;5077906;28;20866;-58
2022/04/18 06:26:51;;;;;;;3.47;3.03;;;10.20;99.90;;;;;;5077874;28;20465;-58
2022/04/18 06:29:22;;;;;;;4.27;3.87;;;10.70;99.90;;;;;;5078176;28;20538;-59
2022/04/18 06:31:56;;;;;;;4.67;3.20;;;11.00;99.90;;;;;;5077418;28;20461;-59
2022/04/18 06:34:32;;;;;;;4.27;3.87;;;11.20;99.90;;;;;;5078165;28;20535;-57
2022/04/18 06:37:02;;;;;;;4.57;4.17;;;11.40;99.90;;;;;;5077129;28;20467;-58
2022/04/18 06:39:31;;;;;;;6.03;3.33;;;11.60;99.90;;;;;;5077739;28;20568;-59
2022/04/18 06:42:00;;;;;;;3.97;3.67;;;11.80;99.90;;;;;;5077508;28;20544;-58
2022/04/18 06:44:29;;;;;;;4.53;3.40;;;11.90;99.90;;;;;;5077580;28;20462;-59
2022/04/18 06:46:55;;;;;;;3.10;2.90;;;12.20;99.90;;;;;;5076910;28;20515;-58
2022/04/18 06:49:22;;;;;;;4.20;3.70;;;12.40;99.90;;;;;;5077594;28;20839;-58
2022/04/18 06:51:49;;;;;;;4.00;3.50;;;12.60;99.90;;;;;;5077895;28;20457;-58
2022/04/18 06:54:22;;;;;;;3.20;2.90;;;12.80;99.90;;;;;;5077165;28;20598;-59
2022/04/18 06:57:02;;;;;;;4.07;3.70;;;13.00;99.90;;;;;;5075034;28;20893;-58
2022/04/18 06:59:36;;;;;;;3.80;3.50;;;13.30;99.90;;;;;;5072345;28;20461;-59
2022/04/18 07:02:18;;;;;;;3.87;3.57;;;13.50;99.90;;;;;;5077089;28;20523;-59
2022/04/18 07:04:44;;;;;;;3.60;3.03;;;13.90;99.90;;;;;;5074241;28;20473;-59
2022/04/18 07:07:15;;;;;;;3.97;3.30;;;14.30;99.90;;;;;;5077597;28;20878;-58
2022/04/18 07:09:42;;;;;;;3.50;3.20;;;14.30;99.90;;;;;;5076733;28;20477;-58
2022/04/18 07:12:14;;;;;;;7.27;3.57;;;14.80;99.90;;;;;;5076024;28;20465;-57
2022/04/18 07:14:43;;;;;;;3.97;3.60;;;15.00;99.90;;;;;;5077411;28;20468;-59
2022/04/18 07:17:10;;;;;;;7.23;6.00;;;15.20;99.90;;;;;;5077149;28;20755;-58
2022/04/18 07:19:37;;;;;;;6.03;4.27;;;15.20;99.90;;;;;;5072670;28;20461;-59
2022/04/18 07:22:04;;;;;;;5.73;4.13;;;15.20;99.90;;;;;;5076576;28;20469;-59
2022/04/18 07:24:34;;;;;;;4.60;4.07;;;15.10;99.90;;;;;;5076428;28;20821;-58
2022/04/18 07:27:01;;;;;;;5.40;4.33;;;15.00;99.90;;;;;;5076803;28;20465;-58
2022/04/18 07:29:33;;;;;;;5.07;3.70;;;15.00;99.90;;;;;;5076543;28;20571;-57
2022/04/18 07:32:08;;;;;;;3.80;3.50;;;15.40;99.90;;;;;;5076520;28;20462;-58
2022/04/18 07:34:35;;;;;;;4.47;4.00;;;15.70;99.90;;;;;;5076851;28;20500;-58
2022/04/18 07:37:05;;;;;;;4.40;4.00;;;15.60;99.90;;;;;;5077068;28;20465;-56
2022/04/18 07:39:33;;;;;;;4.40;3.93;;;15.80;99.90;;;;;;5076451;28;20481;-56
2022/04/18 07:42:03;;;;;;;5.00;3.90;;;15.80;99.90;;;;;;5077129;28;20466;-58
2022/04/18 07:44:35;;;;;;;4.30;3.93;;;15.90;99.90;;;;;;5076619;28;20522;-58
2022/04/18 07:47:08;;;;;;;4.00;3.60;;;16.00;99.90;;;;;;5076943;28;20530;-58
2022/04/18 07:49:41;;;;;;;4.33;3.93;;;16.20;99.90;;;;;;5076609;28;20481;-58
2022/04/18 07:52:12;;;;;;;5.33;4.30;;;16.10;99.90;;;;;;5077135;28;20518;-58
2022/04/18 07:54:49;;;;;;;5.00;4.27;;;16.30;99.90;;;;;;5076271;28;20559;-59
2022/04/18 07:57:19;;;;;;;4.97;4.10;;;16.50;99.90;;;;;;5076918;28;20912;-58
2022/04/18 07:59:46;;;;;;;5.90;4.20;;;16.60;99.90;;;;;;5076529;28;20445;-59
2022/04/18 08:02:14;;;;;;;4.03;3.70;;;16.60;99.90;;;;;;5075960;28;20500;-59
2022/04/18 08:04:46;;;;;;;4.60;4.20;;;17.00;99.90;;;;;;5075465;28;20465;-58
2022/04/18 08:07:13;;;;;;;5.07;3.70;;;17.30;99.90;;;;;;5072908;28;20457;-59
2022/04/18 08:09:40;;;;;;;4.77;4.30;;;17.80;99.90;;;;;;5074071;28;20488;-59
2022/04/18 08:12:11;;;;;;;4.80;4.40;;;18.30;99.90;;;;;;5070355;28;20526;-59
2022/04/18 08:14:41;;;;;;;3.70;3.40;;;18.00;99.90;;;;;;5071541;28;20468;-59
2022/04/18 08:17:11;;;;;;;4.60;3.70;;;18.00;99.90;;;;;;5075059;28;20519;-59
2022/04/18 08:19:40;;;;;;;4.60;4.00;;;18.30;99.90;;;;;;5072073;28;20460;-58
2022/04/18 08:22:11;;;;;;;5.00;4.50;;;18.20;99.90;;;;;;5074685;28;20457;-59
2022/04/18 08:24:41;;;;;;;4.53;4.13;;;18.40;99.90;;;;;;5072565;28;20468;-59
2022/04/18 08:27:08;;;;;;;6.47;3.97;;;18.50;99.90;;;;;;5076132;28;20469;-59
2022/04/18 08:29:34;;;;;;;3.70;3.40;;;18.80;99.90;;;;;;5076465;28;20539;-59
2022/04/18 08:32:12;;;;;;;4.60;4.20;;;19.20;99.90;;;;;;5076130;28;20523;-59
2022/04/18 08:34:40;;;;;;;4.40;3.83;;;19.40;99.90;;;;;;5077520;28;20467;-59
2022/04/18 08:37:15;;;;;;;7.83;4.00;;;19.40;99.90;;;;;;5080023;28;20935;-58
2022/04/18 08:39:46;;;;;;;3.80;3.50;;;19.50;99.90;;;;;;5080364;28;20788;-58
2022/04/18 08:42:16;;;;;;;3.90;3.60;;;19.70;99.90;;;;;;5079238;28;20457;-59
2022/04/18 08:44:47;;;;;;;5.20;4.20;;;19.90;99.90;;;;;;5080031;28;20892;-59
2022/04/18 08:52:52;;;;;;;5.00;4.50;;;19.80;99.90;;;;;;5079200;28;20962;-59
2022/04/18 08:55:22;;;;;;;4.10;3.53;;;20.40;99.90;;;;;;5079819;28;20522;-59
2022/04/18 08:57:49;;;;;;;3.73;3.43;;;20.50;99.90;;;;;;5079443;28;20462;-59
2022/04/18 09:00:19;;;;;;;3.60;3.30;;;20.70;99.90;;;;;;5079678;28;20502;-59
2022/04/18 09:02:46;;;;;;;4.30;3.90;;;20.60;99.90;;;;;;5079034;28;20469;-59
2022/04/18 09:05:15;;;;;;;4.00;3.60;;;20.50;99.90;;;;;;5079539;28;20465;-58
2022/04/18 09:07:57;;;;;;;5.47;3.17;;;20.60;99.90;;;;;;5079464;28;20546;-59
2022/04/18 09:10:24;;;;;;;3.40;3.20;;;21.00;99.90;;;;;;5079448;28;20833;-59
2022/04/18 09:12:57;;;;;;;3.47;3.17;;;21.30;99.90;;;;;;5079447;28;20564;-59
2022/04/18 09:15:43;;;;;;;4.70;3.80;;;21.40;99.90;;;;;;5078463;28;20519;-59
2022/04/18 09:18:17;;;;;;;4.07;3.73;;;21.40;99.90;;;;;;5078540;28;20870;-59
2022/04/18 09:20:50;;;;;;;3.80;3.50;;;21.60;99.90;;;;;;5079524;28;20464;-59
2022/04/18 09:23:25;;;;;;;6.00;4.00;;;21.80;99.90;;;;;;5078878;28;20465;-60
2022/04/18 09:26:06;;;;;;;4.40;4.10;;;21.90;99.90;;;;;;5079348;28;20497;-59
2022/04/18 09:28:35;;;;;;;4.03;3.73;;;21.90;99.90;;;;;;5079364;28;20812;-60
2022/04/18 09:31:10;;;;;;;3.53;3.23;;;21.90;99.90;;;;;;5079259;28;20540;-60
2022/04/18 09:33:44;;;;;;;4.03;3.73;;;21.50;99.90;;;;;;5079138;28;20467;-60
2022/04/18 09:36:16;;;;;;;3.80;3.40;;;21.70;99.90;;;;;;5078690;28;20458;-60
2022/04/18 09:38:48;;;;;;;2.87;2.67;;;21.60;99.90;;;;;;5078724;28;20481;-59
2022/04/18 09:41:32;;;;;;;3.40;3.10;;;21.70;99.90;;;;;;5078592;28;20453;-60
2022/04/18 09:44:00;;;;;;;3.20;2.90;;;21.90;99.90;;;;;;5078385;28;20461;-58
2022/04/18 09:46:27;;;;;;;3.77;3.43;;;22.30;99.90;;;;;;5076617;28;20944;-60
2022/04/18 09:49:03;;;;;;;2.67;2.47;;;22.60;99.90;;;;;;5077134;28;20557;-59
2022/04/18 09:51:37;;;;;;;4.20;3.17;;;22.60;99.90;;;;;;5077379;28;20524;-58
2022/04/18 09:54:06;;;;;;;4.00;3.00;;;22.80;99.90;;;;;;5075404;28;20457;-61
2022/04/18 09:56:36;;;;;;;3.43;3.03;;;22.80;99.90;;;;;;5076352;28;20500;-60
2022/04/18 09:59:04;;;;;;;3.80;3.50;;;22.80;99.90;;;;;;5076567;28;20458;-60
2022/04/18 10:01:33;;;;;;;3.23;2.93;;;22.80;99.90;;;;;;5075866;28;20556;-60
2022/04/18 10:04:02;;;;;;;3.60;3.30;;;22.30;99.90;;;;;;5077381;28;20519;-61
2022/04/18 10:06:33;;;;;;;3.90;3.60;;;22.50;99.90;;;;;;5077452;28;20465;-61
2022/04/18 10:09:01;;;;;;;3.90;3.60;;;22.70;99.90;;;;;;5078415;28;20898;-60
2022/04/18 10:11:29;;;;;;;4.03;3.73;;;23.00;99.90;;;;;;5076853;28;20489;-60
2022/04/18 10:13:59;;;;;;;5.10;3.40;;;22.10;99.90;;;;;;5077958;28;20462;-59
2022/04/18 10:16:32;;;;;;;3.60;3.37;;;22.10;99.90;;;;;;5076915;28;20461;-59
2022/04/18 10:19:08;;;;;;;3.50;3.23;;;22.40;99.90;;;;;;5078205;28;20457;-61
2022/04/18 10:22:00;;;;;;;3.43;3.13;;;23.20;99.90;;;;;;5077819;28;20461;-60
2022/04/18 10:25:02;;;;;;;3.37;2.90;;;23.70;99.90;;;;;;5077818;28;20464;-59
2022/04/18 10:28:01;;;;;;;3.50;3.20;;;23.50;99.90;;;;;;5072858;28;20929;-61
2022/04/18 10:30:29;;;;;;;3.53;3.23;;;23.80;99.90;;;;;;5077893;28;20493;-60
2022/04/18 10:32:57;;;;;;;4.20;3.10;;;23.90;99.90;;;;;;5076866;28;20887;-61
2022/04/18 10:35:27;;;;;;;3.47;3.27;;;24.10;99.90;;;;;;5077870;28;20461;-59
2022/04/18 10:37:58;;;;;;;2.90;2.70;;;24.20;99.90;;;;;;5077179;28;20542;-60
2022/04/18 10:40:25;;;;;;;3.67;3.37;;;24.00;99.90;;;;;;5077785;28;20886;-59
2022/04/18 10:42:54;;;;;;;4.63;3.77;;;24.20;99.90;;;;;;5077544;28;20465;-60
2022/04/18 10:45:24;;;;;;;3.77;3.23;;;23.90;99.90;;;;;;5076342;28;20500;-60
2022/04/18 10:48:11;;;;;;;3.30;3.10;;;24.10;99.90;;;;;;5076663;28;20874;-60
2022/04/18 10:50:54;;;;;;;3.63;3.43;;;24.00;99.90;;;;;;5077530;28;20998;-58
2022/04/18 10:53:39;;;;;;;3.27;3.03;;;24.40;99.90;;;;;;5075970;28;20784;-60
2022/04/18 10:56:17;;;;;;;2.90;2.70;;;24.60;99.90;;;;;;5075856;28;20464;-59
2022/04/18 10:58:47;;;;;;;3.10;2.90;;;24.40;99.90;;;;;;5071843;28;20523;-59
2022/04/18 11:01:21;;;;;;;3.70;3.40;;;24.40;99.90;;;;;;5075918;28;20503;-59
2022/04/18 11:03:58;;;;;;;2.90;2.60;;;24.20;99.90;;;;;;5073923;28;20519;-59
2022/04/18 11:07:00;;;;;;;3.23;3.03;;;24.10;99.90;;;;;;5073449;28;20453;-59
2022/04/18 11:09:34;;;;;;;3.60;3.07;;;24.30;99.90;;;;;;5063507;28;20468;-59
2022/04/18 11:12:08;;;;;;;3.20;3.00;;;23.90;99.90;;;;;;5074644;28;20572;-59
2022/04/18 11:14:54;;;;;;;3.50;3.20;;;23.40;99.90;;;;;;5075268;28;20461;-59
2022/04/18 11:17:45;;;;;;;3.50;3.20;;;23.80;99.90;;;;;;5075148;28;20507;-59
2022/04/18 11:23:23;;;;;;;4.10;3.80;;;23.90;99.90;;;;;;5072495;28;20572;-59
2022/04/18 11:25:58;;;;;;;3.40;3.10;;;22.80;99.90;;;;;;5074078;28;20456;-59
2022/04/18 11:28:35;;;;;;;3.50;3.20;;;23.10;99.90;;;;;;5072804;28;20763;-59
2022/04/18 11:31:08;;;;;;;3.50;3.20;;;23.20;99.90;;;;;;5075327;28;20488;-59
2022/04/18 11:33:41;;;;;;;3.50;3.20;;;24.10;99.90;;;;;;5076733;28;20535;-60
2022/04/18 11:36:18;;;;;;;3.10;2.90;;;24.50;99.90;;;;;;5077424;28;20544;-58
2022/04/18 11:38:48;;;;;;;3.60;3.40;;;25.20;99.90;;;;;;5075772;28;20517;-60
2022/04/18 11:41:20;;;;;;;3.70;3.40;;;24.60;99.90;;;;;;5076594;28;20948;-59
2022/04/18 11:43:47;;;;;;;3.27;3.07;;;23.50;99.90;;;;;;5076183;28;20523;-60
2022/04/18 11:46:21;;;;;;;3.80;3.57;;;24.20;99.90;;;;;;5073218;28;20573;-60
2022/04/18 11:49:00;;;;;;;4.90;3.40;;;24.20;99.90;;;;;;5075203;28;20797;-60
2022/04/18 11:51:50;;;;;;;3.87;3.50;;;24.90;99.90;;;;;;5075802;28;20825;-59
2022/04/18 11:54:17;;;;;;;3.50;3.20;;;24.90;99.90;;;;;;5076391;28;20890;-59
2022/04/18 11:56:59;;;;;;;4.10;3.70;;;25.00;99.90;;;;;;5074328;28;20477;-58
2022/04/18 11:59:29;;;;;;;3.97;3.67;;;24.50;99.90;;;;;;5075655;28;20468;-59
2022/04/18 12:07:46;;;;;;;4.20;3.80;;;23.60;99.90;;;;;;5073601;28;20484;-59
2022/04/18 12:10:26;;;;;;;4.07;3.77;;;24.20;99.90;;;;;;5079014;28;20556;-59
2022/04/18 12:12:55;;;;;;;3.50;3.20;;;24.50;99.90;;;;;;5077792;28;20488;-59
2022/04/18 12:15:25;;;;;;;4.30;4.00;;;24.40;99.90;;;;;;5078740;28;20514;-60
2022/04/18 12:17:54;;;;;;;3.63;3.33;;;24.80;99.90;;;;;;5079300;28;20467;-59
2022/04/18 12:20:27;;;;;;;4.27;3.90;;;24.80;99.90;;;;;;5079084;28;20465;-59
2022/04/18 12:23:02;;;;;;;3.50;3.30;;;25.00;99.90;;;;;;5079349;28;20543;-60
2022/04/18 12:25:36;;;;;;;4.00;3.60;;;25.20;99.90;;;;;;5075783;28;20461;-59
2022/04/18 12:30:54;;;;;;;3.63;3.40;;;24.70;99.90;;;;;;5070979;28;20449;-60
2022/04/18 12:33:25;;;;;;;3.83;3.53;;;24.20;99.90;;;;;;5080029;28;20495;-60
2022/04/18 12:35:53;;;;;;;3.50;3.30;;;24.50;99.90;;;;;;5078010;28;20900;-59
2022/04/18 12:38:31;;;;;;;4.03;3.63;;;25.10;99.90;;;;;;5076549;28;20584;-60
2022/04/18 12:41:02;;;;;;;3.70;3.43;;;25.50;99.90;;;;;;5075792;28;20540;-58
2022/04/18 12:43:37;;;;;;;4.40;4.00;;;25.80;99.90;;;;;;5076698;28;20461;-59
2022/04/18 12:46:10;;;;;;;3.57;3.20;;;25.90;99.90;;;;;;5078683;28;20461;-59
2022/04/18 12:48:38;;;;;;;3.70;3.40;;;26.00;99.90;;;;;;5078510;28;20972;-60
2022/04/18 12:51:07;;;;;;;4.23;3.70;;;25.70;99.90;;;;;;5078748;28;20461;-59
2022/04/18 12:53:48;;;;;;;4.10;3.60;;;25.70;99.90;;;;;;5079676;28;20496;-59
2022/04/18 12:56:22;;;;;;;3.60;3.30;;;24.70;99.90;;;;;;5078793;28;20460;-59
2022/04/18 12:59:02;;;;;;;3.20;2.90;;;24.90;99.90;;;;;;5077683;28;20552;-59
2022/04/18 13:01:32;;;;;;;5.30;3.90;;;24.60;99.90;;;;;;5077923;28;20542;-59
2022/04/18 13:04:03;;;;;;;3.70;3.27;;;25.30;99.90;;;;;;5076199;28;20454;-59
2022/04/18 13:06:32;;;;;;;4.33;3.67;;;26.00;99.90;;;;;;5077038;28;20484;-60
2022/04/18 13:09:09;;;;;;;3.70;3.43;;;25.90;99.90;;;;;;5076601;28;20457;-59
2022/04/18 13:11:40;;;;;;;3.43;3.23;;;25.60;99.90;;;;;;5075644;28;20453;-59
2022/04/18 13:14:14;;;;;;;4.03;3.53;;;25.30;99.90;;;;;;5078406;28;20575;-59
2022/04/18 13:16:43;;;;;;;4.00;3.60;;;25.10;99.90;;;;;;5075115;28;20458;-59
2022/04/18 13:19:12;;;;;;;3.63;3.33;;;24.40;99.90;;;;;;5077042;28;20539;-59
2022/04/18 13:21:41;;;;;;;3.77;3.47;;;24.20;99.90;;;;;;5075715;28;20836;-60
2022/04/18 13:24:13;;;;;;;6.10;3.77;;;23.60;99.90;;;;;;5078078;28;20548;-61
2022/04/18 13:26:42;;;;;;;4.00;3.60;;;24.40;99.90;;;;;;5076266;28;20479;-58
2022/04/18 13:29:14;;;;;;;3.83;3.53;;;24.70;99.90;;;;;;5078087;28;20465;-60
2022/04/18 13:31:43;;;;;;;4.40;4.10;;;25.20;99.90;;;;;;5076151;28;20462;-60
2022/04/18 13:34:10;;;;;;;3.60;3.30;;;25.00;99.90;;;;;;5078463;28;20564;-60
2022/04/18 13:36:52;;;;;;;3.90;3.60;;;25.40;99.90;;;;;;5077333;28;20539;-61
2022/04/18 13:39:26;;;;;;;3.63;3.33;;;24.60;99.90;;;;;;5072890;28;20972;-60